Ellaville, GA (31806)

2:15 AM EDT on August 02, 2014 (GMT -0400)
Souther (KACJ) Elev 469 ft | 32.11 °N, 84.19 °W | Change Station

Current weather conditions updated 40 minutes ago

Scattered Clouds
Scattered Clouds
72 °F
Feels Like 72 °F
N
7
Wind Variable Wind from NE

Today is forecast to be Warmer than yesterday. Scattered thunderstorms possible.

Today
High -- | Low -- °F
--% Chance of Precip.
Yesterday
High -- | Low -- °F
Precip. -- in
6:51 AM 8:32 PM
Waxing Crescent, 33% visible
Pressure 30.05 in
Visibility 10.0 miles
Clouds Scattered Clouds 10000 ft
Dew Point 70 °F
Humidity 94%
Rainfall 0.00 in
Snow Depth Not available.
UV 0 out of 12
Pollen 4.20 out of 12
Air Quality Not available.
Flu Activity Not available.
METAR KACJ 020535Z AUTO 05006KT 10SM SCT100 22/21 A3005 RMK AO2

More Conditions Fewer Conditions

Pressure 30.05 in
Visibility 10.0 miles
Clouds Scattered Clouds 10000 ft
Dew Point 70 °F
Humidity 94%
Rainfall 0.00 in
Snow Depth Not available.
UV 0 out of 12
Pollen 4.20 out of 12
Air Quality Not available.
Flu Activity Not available.
METAR KACJ 020535Z AUTO 05006KT 10SM SCT100 22/21 A3005 RMK AO2

More Conditions Fewer Conditions

10-Day Weather Forecast

Almanac

Astronomy

Aug. 02, 2014 Rise Set
Actual Time 6:51 AM EDT 8:32 PM EDT
Civil Twilight 6:25 AM EDT 8:59 PM EDT
Nautical Twilight 5:52 AM EDT 9:31 PM EDT
Astronomical Twilight 5:19 AM EDT 10:05 PM EDT
Moon 12:48 PM EDT No Moon Set
Length of Visible Light 14h 34m
Length of Day
13h 41m
Tomorrow will be 1m 31s shorter.
Waxing Crescent, 33% of the Moon is Illuminated
Today
Waxing Crescent
Aug 3
First Quarter
Aug 10
Full
Aug 17
Last Quarter
Aug 25
New

Today's Extremes

State Highs State Lows

Community

WunderPhotos

Upload Photos

1,739,830 photos uploaded!

Nearby

Snow Depth

Station Depth Elevation
No new snow has been reported.

Earthquake Activity

City Distance Mag. Time & Date
No recent earthquake activity has been reported nearby.
Minimum magnitude displayed is 2.5.

Coastal Water Temperatures

Place Temperature
No Stations Reporting

Nearby Weather Stations

Station Location Temp. Heat Index Dew Point Humidity Wind Precip. Elev Updated Type
RAWS AMERICUS/PLAINS GA, Americus, GA 72 °F - 68 °F 88% NNE  at  6 mph 0.00 in / hr 456 ft 1:03 AM EDT MADIS
Potterville, Reynolds, GA 70.0 °F - 68 °F 94% NNE  at  0.0 mph 0.00 in / hr 420 ft 2:06 AM EDT Normal
Reynolds, GA 70.4 °F - 67 °F 90% NNE  at  0.0 mph - / hr 429 ft 2:07 AM EDT Normal
Wildwood Circle, Americus, GA 73.8 °F 71 °F 72 °F 95% North  at  0.0 mph 0.00 in / hr 402 ft 11:45 PM EDT Normal
Downtown, Perry, GA 72.7 °F 71 °F 69 °F 88% SSW  at  0.0 mph - / hr 364 ft 2:03 AM EDT Normal
Cobb, Cobb, GA 72.9 °F 71 °F 70 °F 89% SE  at  1.0 mph 0.00 in / hr 285 ft 2:02 AM EDT Normal

Show More Stations Show Fewer Stations